Time;durP1;ratioP1;P1;durP2;ratioP2;P2;SDS_P1;SDS_P2;PMS_P1;PMS_P2;Temp;Humidity;BMP_temperature;BMP_pressure;BME280_temperature;BME280_humidity;BME280_pressure;Samples;Min_cycle;Max_cycle;Signal;HPM_P1;HPM_P2
2023/04/23 00:00:36;;;;;;;4.32;2.58;;;20.60;65.70;;;;;;4809143;29;89573;-90
2023/04/23 00:03:11;;;;;;;3.45;2.40;;;20.60;65.80;;;;;;4824361;29;92132;-90
2023/04/23 00:05:38;;;;;;;2.50;2.20;;;20.60;65.70;;;;;;4824540;29;91099;-92
2023/04/23 00:08:04;;;;;;;2.78;2.42;;;20.60;66.00;;;;;;4825050;29;87038;-90
2023/04/23 00:10:30;;;;;;;2.42;2.22;;;20.60;65.90;;;;;;4816273;29;89116;-91
2023/04/23 00:12:56;;;;;;;4.03;2.50;;;20.60;66.10;;;;;;4808944;29;91580;-91
2023/04/23 00:15:22;;;;;;;2.83;2.30;;;20.60;66.10;;;;;;4809520;29;91241;-91
2023/04/23 00:17:48;;;;;;;2.80;2.25;;;20.60;66.00;;;;;;4809387;29;87459;-89
2023/04/23 00:20:16;;;;;;;3.05;2.22;;;20.60;66.00;;;;;;4776684;29;89023;-89
2023/04/23 00:22:43;;;;;;;3.37;2.50;;;20.50;65.80;;;;;;4761943;29;91057;-89
2023/04/23 00:25:09;;;;;;;2.50;2.30;;;20.50;66.00;;;;;;4785674;29;91423;-90
2023/04/23 00:27:35;;;;;;;4.00;2.30;;;20.50;65.90;;;;;;4788608;29;88150;-89
2023/04/23 00:30:02;;;;;;;2.78;2.30;;;20.50;65.90;;;;;;4790336;29;89074;-91
2023/04/23 00:32:28;;;;;;;3.03;2.35;;;20.50;65.90;;;;;;4797903;29;92120;-90
2023/04/23 00:34:55;;;;;;;2.92;2.50;;;20.50;65.90;;;;;;4790471;29;90082;-91
2023/04/23 00:37:21;;;;;;;2.40;2.08;;;20.50;65.90;;;;;;4789139;29;87003;-91
2023/04/23 00:39:46;;;;;;;2.35;2.00;;;20.50;66.00;;;;;;4789128;29;90602;-90
2023/04/23 00:42:12;;;;;;;2.75;2.33;;;20.50;66.00;;;;;;4790923;29;90270;-90
2023/04/23 00:44:39;;;;;;;2.72;2.13;;;20.50;65.90;;;;;;4790452;29;90304;-90
2023/04/23 00:47:06;;;;;;;2.63;1.98;;;20.50;66.00;;;;;;4804479;29;94966;-90
2023/04/23 00:49:33;;;;;;;3.03;2.10;;;20.50;66.00;;;;;;4803674;29;89646;-91
2023/04/23 00:52:02;;;;;;;3.33;2.60;;;20.40;65.80;;;;;;4826097;29;91378;-90
2023/04/23 00:54:27;;;;;;;2.17;1.97;;;20.50;65.90;;;;;;4836082;29;92144;-90
2023/04/23 00:56:56;;;;;;;3.80;2.65;;;20.40;65.80;;;;;;4839079;29;87390;-89
2023/04/23 00:59:25;;;;;;;2.20;2.00;;;20.40;65.60;;;;;;4837576;29;90794;-89
2023/04/23 01:01:52;;;;;;;2.42;2.22;;;20.40;65.70;;;;;;4852049;29;91398;-90
2023/04/23 01:04:19;;;;;;;3.00;2.45;;;20.40;65.70;;;;;;4837372;29;91200;-90
2023/04/23 01:06:46;;;;;;;3.13;2.45;;;20.40;65.80;;;;;;4835735;29;87325;-91
2023/04/23 01:09:31;;;;;;;2.85;2.47;;;20.40;65.70;;;;;;4836304;29;90887;-91
2023/04/23 01:11:58;;;;;;;2.35;2.15;;;20.40;65.60;;;;;;4836052;29;94596;-90
2023/04/23 01:14:23;;;;;;;2.50;2.25;;;20.30;65.70;;;;;;4852588;29;91429;-91
2023/04/23 01:16:49;;;;;;;3.53;2.45;;;20.40;65.60;;;;;;4836667;29;88382;-90
2023/04/23 01:19:15;;;;;;;2.75;2.30;;;20.40;65.70;;;;;;4837199;29;93769;-90
2023/04/23 01:21:41;;;;;;;2.97;2.35;;;20.30;65.80;;;;;;4836537;29;91333;-89
2023/04/23 01:24:09;;;;;;;2.53;2.20;;;20.30;65.90;;;;;;4839182;29;91582;-90
2023/04/23 01:26:35;;;;;;;3.35;2.45;;;20.30;65.70;;;;;;4851181;29;93322;-90
2023/04/23 01:32:23;;;;;;;2.17;1.95;;;20.30;65.80;;;;;;4854670;29;87593;-90
2023/04/23 01:34:50;;;;;;;2.10;1.90;;;20.30;65.70;;;;;;4837987;29;91147;-89
2023/04/23 01:37:16;;;;;;;2.80;2.25;;;20.30;65.80;;;;;;4837326;29;87084;-90
2023/04/23 01:39:42;;;;;;;2.50;2.28;;;20.30;66.00;;;;;;4836544;29;90420;-90
2023/04/23 01:42:08;;;;;;;2.67;2.20;;;20.20;65.70;;;;;;4837314;29;91371;-90
2023/04/23 01:44:33;;;;;;;2.55;2.25;;;20.20;65.80;;;;;;4837923;29;90867;-89
2023/04/23 01:46:59;;;;;;;2.78;2.45;;;20.20;65.90;;;;;;4835467;29;87465;-90
2023/04/23 01:49:25;;;;;;;3.38;2.50;;;20.30;65.90;;;;;;4836442;29;90292;-89
2023/04/23 01:51:51;;;;;;;2.58;2.30;;;20.20;65.90;;;;;;4850580;29;91588;-90
2023/04/23 01:54:17;;;;;;;2.45;2.20;;;20.20;65.90;;;;;;4835225;29;90877;-90
2023/04/23 01:56:42;;;;;;;2.70;2.28;;;20.20;65.90;;;;;;4852692;29;87147;-89
2023/04/23 01:59:08;;;;;;;2.75;2.42;;;20.20;65.90;;;;;;4836720;29;90419;-89
2023/04/23 02:01:45;;;;;;;2.70;2.33;;;20.20;65.80;;;;;;4835778;29;90254;-90
2023/04/23 02:04:12;;;;;;;2.58;2.10;;;20.20;65.80;;;;;;4852605;29;90842;-90
2023/04/23 02:06:39;;;;;;;2.72;2.33;;;20.20;65.90;;;;;;4834305;29;87888;-90
2023/04/23 02:09:05;;;;;;;2.30;2.10;;;20.20;65.90;;;;;;4853211;29;89317;-90
2023/04/23 02:15:08;;;;;;;2.97;2.55;;;20.20;65.90;;;;;;4852796;29;91427;-90
2023/04/23 02:17:34;;;;;;;2.92;2.30;;;20.10;65.60;;;;;;4836716;29;87088;-90
2023/04/23 02:20:00;;;;;;;2.40;2.17;;;20.20;65.80;;;;;;4838725;29;89230;-90
2023/04/23 02:22:27;;;;;;;2.50;2.20;;;20.10;65.70;;;;;;4838210;29;91111;-90
2023/04/23 02:24:53;;;;;;;3.40;2.10;;;20.10;65.80;;;;;;4840142;29;90933;-91
2023/04/23 02:27:20;;;;;;;2.88;2.58;;;20.10;65.60;;;;;;4838867;29;86866;-90
2023/04/23 02:29:47;;;;;;;2.45;2.17;;;20.10;65.50;;;;;;4853832;29;90273;-90
2023/04/23 02:32:13;;;;;;;3.03;2.17;;;20.10;65.90;;;;;;4852683;29;90957;-90
2023/04/23 02:34:39;;;;;;;2.53;2.10;;;20.10;65.80;;;;;;4837208;29;90967;-90
2023/04/23 02:37:05;;;;;;;2.38;2.15;;;20.10;65.70;;;;;;4838788;29;87366;-91
2023/04/23 02:39:31;;;;;;;2.20;2.00;;;20.10;65.50;;;;;;4853489;29;89545;-91
2023/04/23 02:41:57;;;;;;;2.20;2.00;;;20.10;65.70;;;;;;4839437;29;91929;-90
2023/04/23 02:44:23;;;;;;;2.30;2.08;;;20.10;65.60;;;;;;4837158;29;90641;-90
2023/04/23 02:46:50;;;;;;;2.95;2.58;;;20.10;65.50;;;;;;4838096;29;87514;-91
2023/04/23 02:49:21;;;;;;;2.35;1.88;;;20.10;65.50;;;;;;4835592;29;88434;-91
2023/04/23 02:51:47;;;;;;;2.22;2.03;;;20.10;65.70;;;;;;4818750;29;91576;-90
2023/04/23 02:54:13;;;;;;;5.15;2.10;;;20.10;65.60;;;;;;4818340;29;91227;-90
2023/04/23 02:56:39;;;;;;;2.50;2.20;;;20.10;65.70;;;;;;4820038;29;88366;-90
2023/04/23 02:59:05;;;;;;;2.67;2.10;;;20.10;65.60;;;;;;4817500;29;89325;-90
2023/04/23 03:01:31;;;;;;;3.13;1.98;;;20.10;65.70;;;;;;4836934;29;90570;-89
2023/04/23 03:03:57;;;;;;;2.83;2.20;;;20.10;65.60;;;;;;4818197;29;90126;-89
2023/04/23 03:09:44;;;;;;;3.63;2.20;;;20.10;65.80;;;;;;4834191;29;87107;-90
2023/04/23 03:12:10;;;;;;;2.25;1.90;;;20.10;65.60;;;;;;4819696;29;90384;-90
2023/04/23 03:14:36;;;;;;;2.33;2.03;;;20.10;65.70;;;;;;4818571;29;90424;-89
2023/04/23 03:17:01;;;;;;;3.17;2.20;;;20.00;65.60;;;;;;4818782;29;87517;-91
2023/04/23 03:19:27;;;;;;;2.17;1.98;;;20.00;65.80;;;;;;4820826;29;90323;-89
2023/04/23 03:21:53;;;;;;;2.60;2.40;;;20.00;65.80;;;;;;4836015;29;91458;-89
2023/04/23 03:24:18;;;;;;;2.40;2.20;;;20.00;65.80;;;;;;4838997;29;92401;-90
2023/04/23 03:26:44;;;;;;;2.10;1.90;;;20.00;65.60;;;;;;4839803;29;86963;-90
2023/04/23 03:29:10;;;;;;;1.92;1.83;;;20.00;65.80;;;;;;4836626;29;94384;-89
2023/04/23 03:31:36;;;;;;;2.95;2.00;;;20.00;65.70;;;;;;4837945;29;90209;-90
2023/04/23 03:34:02;;;;;;;2.53;2.03;;;20.00;65.60;;;;;;4838147;29;90964;-89
2023/04/23 03:36:27;;;;;;;2.97;2.17;;;20.00;65.70;;;;;;4838509;29;86926;-89
2023/04/23 03:38:53;;;;;;;2.40;2.17;;;20.00;65.70;;;;;;4839210;29;89098;-89
2023/04/23 03:41:19;;;;;;;2.10;1.90;;;20.00;65.70;;;;;;4838504;29;90466;-90
2023/04/23 03:43:45;;;;;;;2.80;2.30;;;20.00;65.80;;;;;;4832272;29;90702;-89
2023/04/23 03:46:10;;;;;;;2.90;1.83;;;20.00;65.80;;;;;;4816045;29;87972;-89
2023/04/23 03:48:36;;;;;;;1.95;1.83;;;20.00;65.80;;;;;;4825637;29;88988;-89
2023/04/23 03:51:02;;;;;;;2.47;2.28;;;20.00;65.60;;;;;;4819113;29;89967;-89
2023/04/23 03:53:28;;;;;;;3.13;2.67;;;20.00;65.70;;;;;;4816592;29;90054;-90
2023/04/23 03:55:53;;;;;;;2.60;2.20;;;20.00;65.60;;;;;;4834742;29;87672;-90
2023/04/23 03:58:19;;;;;;;2.85;1.88;;;19.90;65.70;;;;;;4833267;29;88985;-89
2023/04/23 04:00:47;;;;;;;3.70;2.25;;;20.00;65.40;;;;;;4817754;29;90633;-90
2023/04/23 04:03:13;;;;;;;2.33;2.13;;;20.00;65.80;;;;;;4818474;29;91012;-90
2023/04/23 04:05:43;;;;;;;2.08;1.90;;;20.00;65.60;;;;;;4819396;29;87225;-90
2023/04/23 04:08:10;;;;;;;2.20;2.00;;;20.00;65.70;;;;;;4834513;29;90185;-90
2023/04/23 04:10:35;;;;;;;2.15;1.95;;;20.00;65.50;;;;;;4833996;29;90081;-90
2023/04/23 04:13:01;;;;;;;2.75;2.28;;;20.00;65.70;;;;;;4819310;29;90659;-90
2023/04/23 04:15:27;;;;;;;2.30;2.10;;;20.00;65.70;;;;;;4814519;29;87644;-90
2023/04/23 04:17:52;;;;;;;2.17;2.03;;;19.90;65.60;;;;;;4799991;29;89587;-90
2023/04/23 04:20:18;;;;;;;2.00;1.80;;;19.90;65.60;;;;;;4800153;29;90961;-89
2023/04/23 04:22:45;;;;;;;1.85;1.75;;;19.90;65.70;;;;;;4816440;29;91228;-90
2023/04/23 04:25:11;;;;;;;2.35;2.15;;;19.90;65.70;;;;;;4813807;29;87110;-89
2023/04/23 04:27:38;;;;;;;2.45;2.25;;;20.00;65.70;;;;;;4814178;29;88682;-89
2023/04/23 04:30:04;;;;;;;2.40;2.20;;;19.90;65.80;;;;;;4816375;29;90849;-90
2023/04/23 04:32:30;;;;;;;1.80;1.70;;;19.90;65.70;;;;;;4813616;29;91443;-91
2023/04/23 04:34:56;;;;;;;2.72;2.10;;;19.90;65.70;;;;;;4813598;29;88298;-90
2023/04/23 04:37:22;;;;;;;2.15;1.98;;;19.90;65.70;;;;;;4815252;29;90405;-90
2023/04/23 04:39:48;;;;;;;2.42;2.17;;;19.90;65.60;;;;;;4805799;29;91107;-90
2023/04/23 04:42:14;;;;;;;2.33;1.98;;;19.90;65.60;;;;;;4814346;29;91274;-90
2023/04/23 04:44:41;;;;;;;2.90;2.30;;;19.90;65.60;;;;;;4814874;29;87040;-90
2023/04/23 04:47:06;;;;;;;2.05;1.65;;;19.90;65.60;;;;;;4829894;29;89559;-89
2023/04/23 04:49:32;;;;;;;2.58;2.38;;;19.90;65.60;;;;;;4824601;29;90151;-89
2023/04/23 04:52:07;;;;;;;1.88;1.70;;;19.90;65.40;;;;;;4816918;29;91357;-90
2023/04/23 04:54:33;;;;;;;1.80;1.70;;;19.90;65.60;;;;;;4817345;29;87973;-90
2023/04/23 04:57:01;;;;;;;2.78;1.95;;;19.90;65.50;;;;;;4818456;29;90805;-89
2023/04/23 04:59:27;;;;;;;2.60;2.03;;;19.90;65.70;;;;;;4815995;29;91601;-90
2023/04/23 05:01:53;;;;;;;2.10;1.90;;;19.80;65.30;;;;;;4817822;29;91069;-91
2023/04/23 05:04:18;;;;;;;2.70;1.98;;;19.90;65.50;;;;;;4825155;29;87002;-90
2023/04/23 05:06:44;;;;;;;2.10;1.90;;;19.90;65.40;;;;;;4816701;29;90054;-90
2023/04/23 05:09:10;;;;;;;2.42;2.10;;;19.90;65.60;;;;;;4820198;29;90245;-90
2023/04/23 05:14:59;;;;;;;2.03;1.85;;;19.80;65.50;;;;;;4852756;29;86982;-90
2023/04/23 05:17:25;;;;;;;2.20;2.00;;;19.80;65.40;;;;;;4834629;29;89316;-90
2023/04/23 05:19:51;;;;;;;2.20;2.00;;;19.90;65.40;;;;;;4834836;29;92130;-90
2023/04/23 05:22:17;;;;;;;1.95;1.70;;;19.90;65.20;;;;;;4833285;29;90252;-90
2023/04/23 05:24:44;;;;;;;2.30;2.10;;;20.00;65.10;;;;;;4832383;29;88205;-91
2023/04/23 05:27:10;;;;;;;1.83;1.73;;;20.00;65.00;;;;;;4834707;29;90303;-89
2023/04/23 05:29:35;;;;;;;1.80;1.70;;;20.10;65.00;;;;;;4852688;29;91374;-89
2023/04/23 05:32:01;;;;;;;2.10;1.90;;;20.10;64.90;;;;;;4837199;29;89791;-88
2023/04/23 05:34:27;;;;;;;2.22;1.98;;;20.10;64.90;;;;;;4852036;28;87403;-90
2023/04/23 05:36:52;;;;;;;2.22;2.03;;;20.10;64.60;;;;;;4841646;29;90636;-89
2023/04/23 05:39:18;;;;;;;2.10;1.90;;;20.20;64.60;;;;;;4837289;29;91081;-87
2023/04/23 05:41:44;;;;;;;2.17;1.90;;;20.20;64.50;;;;;;4869424;28;89932;-89
2023/04/23 05:44:09;;;;;;;1.75;1.65;;;20.30;64.40;;;;;;4835513;29;87219;-90
2023/04/23 05:46:36;;;;;;;3.45;1.65;;;20.40;64.20;;;;;;4834640;29;90495;-92
2023/04/23 05:49:01;;;;;;;2.42;2.20;;;20.50;63.90;;;;;;4835687;29;92316;-92
2023/04/23 05:51:27;;;;;;;2.45;1.83;;;20.70;63.90;;;;;;4836176;28;90606;-90
2023/04/23 05:53:53;;;;;;;2.10;1.90;;;20.70;63.90;;;;;;4858818;29;87417;-90
2023/04/23 05:56:19;;;;;;;3.92;1.95;;;20.80;63.90;;;;;;4837818;29;90647;-91
2023/04/23 05:58:45;;;;;;;2.40;2.20;;;20.90;61.50;;;;;;4854913;28;90385;-90
2023/04/23 06:01:11;;;;;;;2.53;2.20;;;20.90;62.30;;;;;;4839992;29;90332;-91
2023/04/23 06:03:37;;;;;;;2.55;2.00;;;21.00;62.80;;;;;;4840311;29;86993;-91
2023/04/23 06:06:03;;;;;;;3.17;2.15;;;21.00;62.80;;;;;;4842288;29;90325;-92
2023/04/23 06:08:28;;;;;;;2.42;2.22;;;21.00;62.30;;;;;;4839321;29;90288;-92
2023/04/23 06:10:55;;;;;;;2.70;2.20;;;21.10;62.70;;;;;;4841076;29;89814;-91
2023/04/23 06:13:20;;;;;;;3.20;2.13;;;21.10;62.90;;;;;;4839397;29;88366;-92
2023/04/23 06:15:46;;;;;;;4.25;2.50;;;21.20;63.00;;;;;;4839656;29;89276;-93
2023/04/23 06:18:12;;;;;;;3.35;2.20;;;21.30;62.90;;;;;;4841187;29;89961;-92
2023/04/23 06:20:38;;;;;;;2.40;2.20;;;21.40;62.90;;;;;;4830707;29;91265;-90
2023/04/23 06:23:03;;;;;;;2.13;1.92;;;21.50;62.60;;;;;;4838613;29;87394;-93
2023/04/23 06:25:29;;;;;;;2.40;2.20;;;21.50;62.20;;;;;;4839059;29;90105;-94
2023/04/23 06:31:18;;;;;;;3.05;2.00;;;21.60;62.40;;;;;;4855799;28;86762;-92
2023/04/23 06:33:45;;;;;;;1.98;1.77;;;21.60;62.60;;;;;;4840272;29;86949;-92
2023/04/23 06:36:10;;;;;;;3.60;2.10;;;21.60;62.40;;;;;;4839889;29;90502;-91
2023/04/23 06:38:37;;;;;;;2.33;1.98;;;21.60;62.50;;;;;;4840383;29;92429;-92
2023/04/23 06:41:18;;;;;;;2.00;1.80;;;21.70;62.40;;;;;;4838380;29;90927;-90
2023/04/23 06:43:44;;;;;;;2.22;2.03;;;21.80;62.40;;;;;;4830863;29;86985;-89
2023/04/23 06:46:10;;;;;;;7.13;2.80;;;21.80;62.10;;;;;;4839440;29;88336;-88
2023/04/23 06:48:36;;;;;;;5.88;2.60;;;21.80;62.00;;;;;;4839043;29;90570;-88
2023/04/23 06:51:02;;;;;;;8.27;3.08;;;21.90;62.10;;;;;;4839402;29;89793;-90
2023/04/23 06:56:49;;;;;;;6.18;2.90;;;22.00;62.20;;;;;;4833193;29;91015;-88
2023/04/23 06:59:15;;;;;;;7.20;2.75;;;22.00;62.20;;;;;;4837704;29;90180;-87
2023/04/23 07:01:42;;;;;;;9.88;3.05;;;21.90;62.30;;;;;;4838533;29;90220;-89
2023/04/23 07:04:07;;;;;;;14.73;4.13;;;21.80;62.40;;;;;;4837832;29;88323;-90
2023/04/23 07:06:34;;;;;;;14.82;4.20;;;21.80;62.70;;;;;;4836373;29;89779;-83
2023/04/23 07:09:00;;;;;;;16.65;6.07;;;21.70;62.90;;;;;;4839075;29;91847;-91
2023/04/23 07:11:26;;;;;;;27.58;6.07;;;21.70;62.60;;;;;;4838079;29;90009;-89
2023/04/23 07:13:51;;;;;;;17.67;6.38;;;21.70;62.50;;;;;;4837889;29;87704;-89
2023/04/23 07:16:17;;;;;;;20.75;6.70;;;21.70;62.60;;;;;;4837059;29;90737;-88
2023/04/23 07:18:43;;;;;;;28.83;7.40;;;21.70;62.40;;;;;;4854226;28;88662;-87
2023/04/23 07:24:30;;;;;;;24.40;7.38;;;21.80;61.70;;;;;;4854131;29;87174;-88
2023/04/23 07:26:56;;;;;;;29.10;8.40;;;21.70;62.20;;;;;;4854102;29;87814;-87
2023/04/23 07:29:22;;;;;;;26.98;8.30;;;21.70;62.40;;;;;;4854017;29;89668;-86
2023/04/23 07:31:47;;;;;;;25.02;8.80;;;21.80;62.20;;;;;;4823684;29;91030;-86
2023/04/23 07:34:13;;;;;;;28.55;8.07;;;21.80;61.90;;;;;;4824185;29;88548;-85
2023/04/23 07:36:57;;;;;;;24.08;8.27;;;21.90;61.70;;;;;;4821528;29;87949;-86
2023/04/23 07:39:23;;;;;;;23.88;7.85;;;21.90;61.80;;;;;;4809244;29;91993;-87
2023/04/23 07:41:49;;;;;;;23.20;7.65;;;21.80;62.70;;;;;;4805322;29;89090;-88
2023/04/23 07:44:15;;;;;;;25.70;7.70;;;21.80;62.10;;;;;;4798554;29;87406;-88
2023/04/23 07:46:40;;;;;;;27.13;8.13;;;21.80;62.30;;;;;;4805580;29;88391;-86
2023/04/23 07:49:06;;;;;;;30.90;8.38;;;21.80;62.60;;;;;;4806059;29;88742;-83
2023/04/23 07:51:32;;;;;;;22.38;7.85;;;21.80;62.60;;;;;;4795995;29;91458;-86
2023/04/23 07:53:58;;;;;;;24.60;8.40;;;21.70;62.60;;;;;;4790508;29;88453;-87
2023/04/23 07:56:24;;;;;;;19.08;7.70;;;21.70;62.70;;;;;;4804749;29;87030;-84
2023/04/23 07:58:52;;;;;;;24.25;7.32;;;21.70;62.20;;;;;;4803655;29;87834;-85
2023/04/23 08:01:18;;;;;;;18.55;7.05;;;21.70;62.20;;;;;;4788657;29;91723;-86
2023/04/23 08:03:44;;;;;;;24.48;6.50;;;21.70;61.90;;;;;;4812915;29;87685;-89
2023/04/23 08:06:11;;;;;;;21.63;6.80;;;21.70;61.80;;;;;;4815881;29;90212;-86
2023/04/23 08:08:37;;;;;;;23.00;6.50;;;21.80;61.30;;;;;;4812747;29;88729;-86
2023/04/23 08:11:05;;;;;;;23.45;6.68;;;21.90;60.80;;;;;;4813436;29;88490;-86
2023/04/23 08:13:31;;;;;;;14.98;5.43;;;21.90;60.30;;;;;;4841366;28;87149;-86
2023/04/23 08:15:56;;;;;;;16.02;6.05;;;21.90;60.10;;;;;;4851985;29;87220;-85
2023/04/23 08:18:22;;;;;;;15.27;5.22;;;21.90;60.30;;;;;;4851587;29;92161;-86
2023/04/23 08:20:48;;;;;;;16.55;6.15;;;21.80;60.10;;;;;;4854434;29;88762;-89
2023/04/23 08:23:14;;;;;;;20.52;5.95;;;21.80;60.70;;;;;;4837673;29;87048;-87
2023/04/23 08:25:39;;;;;;;13.95;5.78;;;21.80;60.10;;;;;;4853786;28;88055;-88
2023/04/23 08:31:27;;;;;;;17.15;5.47;;;21.80;60.40;;;;;;4853943;29;87108;-90
2023/04/23 08:33:53;;;;;;;14.52;5.57;;;21.80;60.60;;;;;;4835817;29;87255;-87
2023/04/23 08:36:19;;;;;;;14.98;5.95;;;21.80;60.90;;;;;;4836096;29;89358;-88
2023/04/23 08:38:45;;;;;;;13.40;5.80;;;21.80;60.80;;;;;;4835878;29;91986;-88
2023/04/23 08:51:18;;;;;;;17.52;5.65;;;21.80;61.70;;;;;;4852634;29;87421;-85
2023/04/23 08:53:49;;;;;;;13.43;5.72;;;21.80;62.00;;;;;;4837000;29;91339;-86
2023/04/23 08:56:15;;;;;;;18.08;6.22;;;21.80;62.60;;;;;;4866087;28;87025;-86
2023/04/23 08:58:41;;;;;;;14.80;5.55;;;21.70;62.90;;;;;;4847377;29;87594;-87
2023/04/23 09:01:07;;;;;;;15.52;5.70;;;21.60;63.40;;;;;;4853341;29;88520;-85
2023/04/23 09:03:34;;;;;;;11.88;5.63;;;21.60;63.50;;;;;;4852821;29;87686;-84
2023/04/23 09:06:01;;;;;;;14.15;5.85;;;21.50;63.50;;;;;;4866896;28;87684;-83
2023/04/23 09:08:28;;;;;;;12.98;5.07;;;21.40;63.50;;;;;;4855401;29;86876;-85
2023/04/23 09:10:59;;;;;;;17.08;5.53;;;21.40;63.40;;;;;;4852651;29;89323;-83
2023/04/23 09:13:25;;;;;;;15.35;6.10;;;21.40;63.30;;;;;;4853300;29;88186;-85
2023/04/23 09:15:51;;;;;;;16.38;5.60;;;21.30;63.20;;;;;;4854881;29;86883;-86
2023/04/23 09:18:19;;;;;;;12.00;5.38;;;21.20;63.00;;;;;;4836315;29;90792;-84
2023/04/23 09:20:45;;;;;;;19.60;6.53;;;21.20;62.90;;;;;;4852488;28;88233;-89
2023/04/23 09:23:13;;;;;;;17.90;6.00;;;21.20;61.50;;;;;;4869112;28;92153;-87
2023/04/23 09:25:39;;;;;;;14.85;5.75;;;21.30;61.20;;;;;;4853639;29;87385;-88
2023/04/23 09:28:07;;;;;;;14.05;5.60;;;21.30;61.10;;;;;;4855695;29;86743;-87
2023/04/23 09:30:44;;;;;;;19.73;5.70;;;21.30;61.00;;;;;;4855188;29;89512;-87
2023/04/23 09:36:35;;;;;;;12.05;4.60;;;21.40;61.70;;;;;;4856102;29;88374;-87
2023/04/23 09:39:00;;;;;;;14.03;5.07;;;21.40;62.10;;;;;;4870169;28;89064;-87
2023/04/23 09:41:27;;;;;;;17.63;5.55;;;21.40;62.40;;;;;;4837066;29;91896;-87
2023/04/23 09:43:54;;;;;;;14.68;5.72;;;21.40;63.20;;;;;;4855543;29;88280;-87
2023/04/23 09:46:33;;;;;;;15.77;5.53;;;21.40;63.70;;;;;;4856110;29;86873;-88
2023/04/23 09:49:01;;;;;;;14.13;5.20;;;21.40;64.00;;;;;;4854472;29;90601;-88
2023/04/23 09:51:29;;;;;;;13.75;5.57;;;21.50;63.90;;;;;;4852674;29;90834;-87
2023/04/23 09:53:55;;;;;;;12.90;5.05;;;21.50;64.20;;;;;;4854492;29;88290;-87
2023/04/23 09:56:20;;;;;;;13.85;5.38;;;21.40;64.70;;;;;;4856084;29;87316;-89
2023/04/23 09:58:46;;;;;;;15.30;5.20;;;21.50;65.40;;;;;;4856473;28;86968;-87
2023/04/23 10:01:14;;;;;;;14.38;5.93;;;21.50;65.80;;;;;;4854357;29;88667;-89
2023/04/23 10:03:43;;;;;;;13.73;6.00;;;21.50;66.10;;;;;;4854047;29;95963;-87
2023/04/23 10:06:15;;;;;;;13.02;5.65;;;21.50;66.20;;;;;;4840062;29;87084;-87
2023/04/23 10:08:42;;;;;;;20.42;6.25;;;21.50;66.30;;;;;;4838853;29;87955;-89
2023/04/23 10:11:09;;;;;;;18.20;5.43;;;21.50;66.30;;;;;;4858348;28;88617;-89
2023/04/23 10:13:35;;;;;;;16.67;5.70;;;21.50;66.50;;;;;;4838018;29;91131;-87
2023/04/23 10:16:03;;;;;;;19.10;5.72;;;21.50;66.20;;;;;;4857016;29;87315;-90
2023/04/23 10:18:31;;;;;;;12.40;5.38;;;21.50;66.30;;;;;;4838849;29;88635;-86
2023/04/23 10:20:57;;;;;;;19.73;6.20;;;21.50;66.30;;;;;;4838064;29;91384;-86
2023/04/23 10:23:24;;;;;;;12.00;5.30;;;21.50;66.40;;;;;;4870458;28;89085;-87
2023/04/23 10:25:53;;;;;;;11.13;5.45;;;21.50;66.30;;;;;;4853808;29;88491;-92
2023/04/23 10:28:28;;;;;;;12.60;5.40;;;21.50;66.50;;;;;;4853342;29;89192;-88
2023/04/23 10:30:54;;;;;;;17.17;5.68;;;21.60;65.80;;;;;;4853119;29;91004;-88
2023/04/23 10:33:22;;;;;;;12.85;5.03;;;21.50;65.50;;;;;;4857030;28;88346;-92
2023/04/23 10:35:55;;;;;;;11.23;4.88;;;21.50;66.10;;;;;;4840550;29;87803;-91
2023/04/23 10:38:22;;;;;;;9.65;4.72;;;21.50;66.20;;;;;;4842168;29;89761;-90
2023/04/23 10:40:50;;;;;;;16.63;5.38;;;21.50;66.20;;;;;;4839502;29;91960;-87
2023/04/23 10:43:17;;;;;;;16.58;5.47;;;21.50;66.70;;;;;;4854635;29;91156;-91
2023/04/23 10:45:43;;;;;;;13.45;5.78;;;21.50;66.60;;;;;;4856081;29;87446;-90
2023/04/23 10:48:09;;;;;;;15.02;4.68;;;21.60;66.50;;;;;;4840477;29;89044;-87
2023/04/23 10:50:57;;;;;;;14.52;5.30;;;21.60;66.50;;;;;;4838834;29;91137;-93
2023/04/23 10:53:24;;;;;;;17.02;5.60;;;21.50;66.80;;;;;;4840096;29;91194;-87
2023/04/23 10:55:50;;;;;;;15.52;5.07;;;21.60;66.40;;;;;;4838710;29;87717;-92
2023/04/23 10:58:16;;;;;;;13.32;4.65;;;21.70;65.80;;;;;;4815759;29;89580;-92
2023/04/23 11:00:45;;;;;;;15.63;5.22;;;21.60;66.10;;;;;;4815556;29;91121;-94
2023/04/23 11:03:33;;;;;;;14.63;5.13;;;21.60;66.20;;;;;;4816615;29;90820;-92
2023/04/23 11:06:03;;;;;;;14.80;5.35;;;21.60;66.30;;;;;;4832161;29;87052;-96
2023/04/23 11:08:32;;;;;;;10.35;4.38;;;21.60;66.30;;;;;;4834116;29;89197;-96
2023/04/23 11:11:23;;;;;;;14.32;5.18;;;21.50;65.70;;;;;;4816967;29;87194;-95
2023/04/23 11:13:53;;;;;;;11.23;3.90;;;21.50;65.60;;;;;;4823625;29;90230;-95
2023/04/23 11:16:22;;;;;;;11.40;4.30;;;21.50;65.70;;;;;;4808169;29;87936;-95
2023/04/23 11:18:55;;;;;;;9.27;3.70;;;21.50;65.70;;;;;;4808895;29;88113;-96
2023/04/23 11:21:21;;;;;;;12.88;4.75;;;21.50;65.50;;;;;;4818353;29;90239;-92
2023/04/23 11:23:46;;;;;;;11.80;4.38;;;21.50;65.60;;;;;;4790845;29;90911;-92
2023/04/23 11:26:17;;;;;;;10.65;4.28;;;21.50;65.70;;;;;;4809000;29;87750;-88
2023/04/23 11:28:45;;;;;;;11.57;4.75;;;21.60;65.70;;;;;;4825839;29;90644;-94
2023/04/23 11:31:11;;;;;;;11.35;4.97;;;21.60;65.70;;;;;;4855061;29;90463;-90
2023/04/23 11:37:01;;;;;;;12.50;5.40;;;21.60;65.60;;;;;;4863676;29;87667;-95
2023/04/23 11:39:27;;;;;;;12.97;4.23;;;21.60;65.10;;;;;;4847190;29;88929;-93
2023/04/23 11:41:53;;;;;;;13.80;5.05;;;21.60;65.20;;;;;;4858210;29;92625;-96
2023/04/23 11:44:20;;;;;;;11.63;4.47;;;21.60;65.40;;;;;;4836122;29;91105;-95
2023/04/23 11:46:48;;;;;;;9.65;4.63;;;21.50;65.20;;;;;;4819149;29;87094;-95
2023/04/23 11:49:25;;;;;;;12.45;4.68;;;21.50;65.10;;;;;;4853360;29;90382;-95
2023/04/23 11:51:50;;;;;;;10.00;4.07;;;21.50;65.20;;;;;;4838065;29;91459;-93
2023/04/23 11:54:18;;;;;;;14.43;4.45;;;21.50;65.40;;;;;;4851483;29;86879;-93
2023/04/23 11:56:45;;;;;;;8.93;4.15;;;21.50;65.20;;;;;;4830187;29;87286;-94
2023/04/23 11:59:10;;;;;;;9.50;4.45;;;21.40;65.20;;;;;;4815236;29;90327;-96
2023/04/23 12:01:50;;;;;;;11.05;4.45;;;21.40;65.30;;;;;;4833192;29;90531;-96
2023/04/23 12:04:21;;;;;;;10.48;4.10;;;21.40;65.30;;;;;;4790982;29;89076;-96
2023/04/23 12:06:48;;;;;;;12.65;4.13;;;21.40;65.50;;;;;;4818639;29;88307;-93
2023/04/23 12:09:16;;;;;;;7.40;3.88;;;21.30;65.50;;;;;;4816388;29;89325;-95
2023/04/23 12:11:43;;;;;;;7.68;3.65;;;21.30;65.40;;;;;;4799999;29;91600;-93
2023/04/23 12:14:10;;;;;;;13.40;4.15;;;21.30;65.50;;;;;;4801818;29;91880;-93
2023/04/23 12:16:36;;;;;;;7.65;3.90;;;21.20;65.40;;;;;;4833429;29;86990;-92
2023/04/23 12:19:02;;;;;;;9.48;3.90;;;21.30;65.50;;;;;;4814802;29;89165;-93
2023/04/23 12:21:31;;;;;;;7.47;3.75;;;21.30;65.60;;;;;;4825429;29;90393;-94
2023/04/23 12:23:57;;;;;;;9.43;3.72;;;21.30;65.40;;;;;;4826831;29;89598;-92
2023/04/23 12:26:25;;;;;;;9.30;3.92;;;21.30;65.50;;;;;;4828492;29;87601;-92
2023/04/23 12:28:52;;;;;;;7.32;3.63;;;21.30;65.40;;;;;;4828035;29;89401;-93
2023/04/23 12:31:28;;;;;;;11.38;3.55;;;21.20;65.40;;;;;;4829086;29;92558;-93
2023/04/23 12:34:05;;;;;;;9.45;4.13;;;21.30;65.60;;;;;;4816762;29;90814;-94
2023/04/23 12:36:31;;;;;;;11.63;4.15;;;21.30;65.40;;;;;;4800677;29;87475;-92
2023/04/23 12:39:34;;;;;;;9.35;4.05;;;21.20;65.30;;;;;;4800070;29;89566;-94
2023/04/23 12:42:05;;;;;;;9.70;4.03;;;21.30;65.40;;;;;;4821795;29;91151;-94
2023/04/23 12:44:35;;;;;;;7.53;3.40;;;21.20;64.90;;;;;;4828067;29;91279;-94
2023/04/23 12:47:06;;;;;;;7.18;3.53;;;21.20;65.10;;;;;;4831580;29;87405;-96
2023/04/23 12:49:33;;;;;;;6.95;3.63;;;21.20;65.20;;;;;;4831653;29;89257;-94
2023/04/23 12:52:12;;;;;;;10.25;3.92;;;21.20;65.20;;;;;;4847585;29;91405;-93
2023/04/23 12:54:39;;;;;;;5.35;3.38;;;21.20;65.30;;;;;;4821396;29;90198;-95
2023/04/23 12:57:25;;;;;;;7.22;3.92;;;21.20;65.10;;;;;;4813175;29;88282;-94
2023/04/23 12:59:56;;;;;;;9.95;3.40;;;21.30;64.80;;;;;;4812262;29;89356;-94
2023/04/23 13:02:24;;;;;;;8.50;4.13;;;21.30;64.90;;;;;;4893762;23;89246;-93
2023/04/23 13:04:53;;;;;;;9.82;3.88;;;21.40;64.60;;;;;;4821809;29;87020;-95
2023/04/23 13:07:19;;;;;;;5.57;3.25;;;21.50;64.60;;;;;;4853641;28;86794;-96
2023/04/23 13:12:29;;;;;;;7.05;3.30;;;21.70;64.20;;;;;;5501206;23;88901;-96
2023/04/23 13:14:55;;;;;;;7.40;3.20;;;21.80;64.20;;;;;;4950194;23;89471;-93
2023/04/23 13:17:25;;;;;;;7.32;3.22;;;21.90;63.80;;;;;;4842382;29;86925;-96
2023/04/23 13:19:51;;;;;;;9.07;3.35;;;22.00;63.70;;;;;;4843960;29;87693;-95
2023/04/23 13:25:13;;;;;;;4.97;3.25;;;22.10;63.30;;;;;;4886451;23;89417;-95
2023/04/23 13:28:05;;;;;;;4.88;3.08;;;22.20;63.50;;;;;;4800034;29;86152;-96
2023/04/23 13:43:27;;;;;;;5.30;2.83;;;22.10;63.90;;;;;;5252982;23;88832;-93
2023/04/23 13:45:53;;;;;;;7.57;3.22;;;22.20;64.00;;;;;;4939104;23;89845;-96